createdAt,value
2023-03-06T00:16:20.607Z,17.9
2023-03-06T00:36:20.582Z,17.9
2023-03-06T00:56:20.555Z,17.8
2023-03-06T01:16:20.518Z,17.8
2023-03-06T01:36:20.512Z,17.7
2023-03-06T01:56:20.475Z,17.7
2023-03-06T02:16:20.436Z,17.7
2023-03-06T02:36:20.464Z,17.6
2023-03-06T02:56:20.390Z,17.6
2023-03-06T03:16:20.384Z,17.5
2023-03-06T03:36:20.360Z,17.5
2023-03-06T03:56:20.362Z,17.5
2023-03-06T04:16:20.287Z,17.5
2023-03-06T04:36:20.308Z,17.9
2023-03-06T04:56:20.284Z,18.1
2023-03-06T05:16:20.226Z,18.3
2023-03-06T05:36:20.235Z,18.4
2023-03-06T05:56:20.198Z,18.5
2023-03-06T06:16:20.180Z,18.6
2023-03-06T06:36:20.130Z,18.7
2023-03-06T06:56:20.316Z,18.7
2023-03-06T07:36:20.359Z,18.8
2023-03-06T07:56:20.283Z,18.9
2023-03-06T08:16:20.215Z,18.9
2023-03-06T08:36:20.125Z,19.0
2023-03-06T08:56:19.979Z,19.0
2023-03-06T09:16:19.953Z,19.0
2023-03-06T09:36:19.931Z,19.0
2023-03-06T09:56:20.026Z,19.0
2023-03-06T10:16:19.976Z,19.0
2023-03-06T10:36:19.839Z,19.1
2023-03-06T10:56:19.832Z,19.1
2023-03-06T11:16:19.787Z,19.1
2023-03-06T11:36:19.881Z,19.1
2023-03-06T11:56:19.746Z,19.1
2023-03-06T12:16:19.726Z,19.1
2023-03-06T12:36:19.770Z,19.1
2023-03-06T12:56:19.728Z,19.1
2023-03-06T13:16:19.650Z,19.1
2023-03-06T13:36:19.623Z,19.2
2023-03-06T13:56:19.583Z,19.2
2023-03-06T14:16:19.704Z,19.2
2023-03-06T14:36:19.673Z,19.2
2023-03-06T14:56:19.731Z,19.3
2023-03-06T15:16:19.557Z,19.3
2023-03-06T15:36:19.446Z,19.3
2023-03-06T15:56:19.460Z,19.3
2023-03-06T16:16:19.428Z,19.3
2023-03-06T16:36:19.457Z,19.3
2023-03-06T16:56:19.352Z,19.3
2023-03-06T17:16:19.368Z,19.2
2023-03-06T17:36:19.333Z,19.2
2023-03-06T17:56:19.372Z,19.2
2023-03-06T18:16:19.246Z,19.2
2023-03-06T18:36:19.264Z,19.2
2023-03-06T18:56:19.248Z,19.3
2023-03-06T19:16:19.221Z,19.3
2023-03-06T19:36:19.183Z,19.2
2023-03-06T19:56:19.162Z,19.2
2023-03-06T20:16:19.095Z,19.1
2023-03-06T20:36:19.068Z,18.9
2023-03-06T20:56:19.098Z,18.8
2023-03-06T21:16:19.043Z,18.7
2023-03-06T21:36:19.004Z,18.6
2023-03-06T21:56:18.979Z,18.4
2023-03-06T22:16:18.971Z,18.3
2023-03-06T22:36:18.968Z,18.2
2023-03-06T22:56:18.912Z,18.2
2023-03-06T23:16:18.870Z,18.1
2023-03-06T23:36:18.862Z,18.0
2023-03-06T23:56:18.870Z,17.9
